sensor_id;sensor_type;location;lat;lon;timestamp;temperature;humidity
14236;DHT22;7202;50.718;7.072;2023-05-10T00:00:41;13.50;99.90
14236;DHT22;7202;50.718;7.072;2023-05-10T00:03:10;13.40;99.90
14236;DHT22;7202;50.718;7.072;2023-05-10T00:05:39;13.40;99.90
14236;DHT22;7202;50.718;7.072;2023-05-10T00:08:07;13.40;99.90
14236;DHT22;7202;50.718;7.072;2023-05-10T00:10:37;13.40;99.90
14236;DHT22;7202;50.718;7.072;2023-05-10T00:13:07;13.40;99.90
14236;DHT22;7202;50.718;7.072;2023-05-10T00:15:36;13.40;99.90
14236;DHT22;7202;50.718;7.072;2023-05-10T00:18:04;13.40;99.90
14236;DHT22;7202;50.718;7.072;2023-05-10T00:20:33;13.40;99.90
14236;DHT22;7202;50.718;7.072;2023-05-10T00:23:02;13.40;99.90
14236;DHT22;7202;50.718;7.072;2023-05-10T00:25:30;13.40;99.90
14236;DHT22;7202;50.718;7.072;2023-05-10T00:28:00;13.40;99.90
14236;DHT22;7202;50.718;7.072;2023-05-10T00:30:30;13.40;99.90
14236;DHT22;7202;50.718;7.072;2023-05-10T00:32:58;13.40;99.90
14236;DHT22;7202;50.718;7.072;2023-05-10T00:35:27;13.40;99.90
14236;DHT22;7202;50.718;7.072;2023-05-10T00:37:56;13.40;99.90
14236;DHT22;7202;50.718;7.072;2023-05-10T00:40:25;13.40;99.90
14236;DHT22;7202;50.718;7.072;2023-05-10T00:42:59;13.40;99.90
14236;DHT22;7202;50.718;7.072;2023-05-10T00:45:29;13.40;99.90
14236;DHT22;7202;50.718;7.072;2023-05-10T00:47:58;13.40;99.90
14236;DHT22;7202;50.718;7.072;2023-05-10T00:50:28;13.40;99.90
14236;DHT22;7202;50.718;7.072;2023-05-10T00:52:57;13.40;99.90
14236;DHT22;7202;50.718;7.072;2023-05-10T00:55:26;13.40;99.90
14236;DHT22;7202;50.718;7.072;2023-05-10T00:57:55;13.40;99.90
14236;DHT22;7202;50.718;7.072;2023-05-10T01:00:25;13.40;99.90
14236;DHT22;7202;50.718;7.072;2023-05-10T01:02:57;13.40;99.90
14236;DHT22;7202;50.718;7.072;2023-05-10T01:05:26;13.40;99.90
14236;DHT22;7202;50.718;7.072;2023-05-10T01:07:56;13.40;99.90
14236;DHT22;7202;50.718;7.072;2023-05-10T01:10:25;13.30;99.90
14236;DHT22;7202;50.718;7.072;2023-05-10T01:12:54;13.40;99.90
14236;DHT22;7202;50.718;7.072;2023-05-10T01:15:25;13.30;99.90
14236;DHT22;7202;50.718;7.072;2023-05-10T01:17:54;13.40;99.90
14236;DHT22;7202;50.718;7.072;2023-05-10T01:20:24;13.40;99.90
14236;DHT22;7202;50.718;7.072;2023-05-10T01:23:30;13.40;99.90
14236;DHT22;7202;50.718;7.072;2023-05-10T01:26:34;13.40;99.90
14236;DHT22;7202;50.718;7.072;2023-05-10T01:29:15;13.40;99.90
14236;DHT22;7202;50.718;7.072;2023-05-10T01:32:17;13.40;99.90
14236;DHT22;7202;50.718;7.072;2023-05-10T01:34:54;13.30;99.90
14236;DHT22;7202;50.718;7.072;2023-05-10T01:37:29;13.30;99.90
14236;DHT22;7202;50.718;7.072;2023-05-10T01:40:03;13.30;99.90
14236;DHT22;7202;50.718;7.072;2023-05-10T01:42:39;13.30;99.90
14236;DHT22;7202;50.718;7.072;2023-05-10T01:45:14;13.40;99.90
14236;DHT22;7202;50.718;7.072;2023-05-10T01:47:50;13.30;99.90
14236;DHT22;7202;50.718;7.072;2023-05-10T01:50:22;13.30;99.90
14236;DHT22;7202;50.718;7.072;2023-05-10T01:52:53;13.30;99.90
14236;DHT22;7202;50.718;7.072;2023-05-10T01:55:25;13.30;99.90
14236;DHT22;7202;50.718;7.072;2023-05-10T01:58:00;13.30;99.90
14236;DHT22;7202;50.718;7.072;2023-05-10T02:00:31;13.30;99.90
14236;DHT22;7202;50.718;7.072;2023-05-10T02:03:05;13.30;99.90
14236;DHT22;7202;50.718;7.072;2023-05-10T02:05:35;13.30;99.90
14236;DHT22;7202;50.718;7.072;2023-05-10T02:08:07;13.30;99.90
14236;DHT22;7202;50.718;7.072;2023-05-10T02:10:37;13.30;99.90
14236;DHT22;7202;50.718;7.072;2023-05-10T02:13:08;13.30;99.90
14236;DHT22;7202;50.718;7.072;2023-05-10T02:15:38;13.30;99.90
14236;DHT22;7202;50.718;7.072;2023-05-10T02:18:11;13.30;99.90
14236;DHT22;7202;50.718;7.072;2023-05-10T02:20:40;13.30;99.90
14236;DHT22;7202;50.718;7.072;2023-05-10T02:23:09;13.30;99.90
14236;DHT22;7202;50.718;7.072;2023-05-10T02:25:39;13.30;99.90
14236;DHT22;7202;50.718;7.072;2023-05-10T02:28:10;13.30;99.90
14236;DHT22;7202;50.718;7.072;2023-05-10T02:30:40;13.30;99.90
14236;DHT22;7202;50.718;7.072;2023-05-10T02:33:12;13.20;99.90
14236;DHT22;7202;50.718;7.072;2023-05-10T02:35:42;13.20;99.90
14236;DHT22;7202;50.718;7.072;2023-05-10T02:38:11;13.20;99.90
14236;DHT22;7202;50.718;7.072;2023-05-10T02:40:41;13.20;99.90
14236;DHT22;7202;50.718;7.072;2023-05-10T02:43:12;13.20;99.90
14236;DHT22;7202;50.718;7.072;2023-05-10T02:45:43;13.20;99.90
14236;DHT22;7202;50.718;7.072;2023-05-10T02:48:16;13.20;99.90
14236;DHT22;7202;50.718;7.072;2023-05-10T02:50:45;13.20;99.90
14236;DHT22;7202;50.718;7.072;2023-05-10T02:53:22;13.20;99.90
14236;DHT22;7202;50.718;7.072;2023-05-10T02:55:52;13.20;99.90
14236;DHT22;7202;50.718;7.072;2023-05-10T02:58:23;13.20;99.90
14236;DHT22;7202;50.718;7.072;2023-05-10T03:00:52;13.20;99.90
14236;DHT22;7202;50.718;7.072;2023-05-10T03:03:22;13.20;99.90
14236;DHT22;7202;50.718;7.072;2023-05-10T03:05:51;13.20;99.90
14236;DHT22;7202;50.718;7.072;2023-05-10T03:08:21;13.20;99.90
14236;DHT22;7202;50.718;7.072;2023-05-10T03:10:59;13.20;99.90
14236;DHT22;7202;50.718;7.072;2023-05-10T03:13:35;13.20;99.90
14236;DHT22;7202;50.718;7.072;2023-05-10T03:16:08;13.20;99.90
14236;DHT22;7202;50.718;7.072;2023-05-10T03:18:43;13.20;99.90
14236;DHT22;7202;50.718;7.072;2023-05-10T03:21:13;13.20;99.90
14236;DHT22;7202;50.718;7.072;2023-05-10T03:23:46;13.20;99.90
14236;DHT22;7202;50.718;7.072;2023-05-10T03:26:20;13.10;99.90
14236;DHT22;7202;50.718;7.072;2023-05-10T03:28:51;13.20;99.90
14236;DHT22;7202;50.718;7.072;2023-05-10T03:31:20;13.20;99.90
14236;DHT22;7202;50.718;7.072;2023-05-10T03:33:52;13.10;99.90
14236;DHT22;7202;50.718;7.072;2023-05-10T03:36:24;13.10;99.90
14236;DHT22;7202;50.718;7.072;2023-05-10T03:38:54;13.10;99.90
14236;DHT22;7202;50.718;7.072;2023-05-10T03:41:24;13.10;99.90
14236;DHT22;7202;50.718;7.072;2023-05-10T03:43:54;13.20;99.90
14236;DHT22;7202;50.718;7.072;2023-05-10T03:46:22;13.20;99.90
14236;DHT22;7202;50.718;7.072;2023-05-10T03:48:52;13.10;99.90
14236;DHT22;7202;50.718;7.072;2023-05-10T03:51:21;13.20;99.90
14236;DHT22;7202;50.718;7.072;2023-05-10T03:53:49;13.20;99.90
14236;DHT22;7202;50.718;7.072;2023-05-10T03:56:18;13.20;99.90
14236;DHT22;7202;50.718;7.072;2023-05-10T03:58:48;13.20;99.90
14236;DHT22;7202;50.718;7.072;2023-05-10T04:01:17;13.20;99.90
14236;DHT22;7202;50.718;7.072;2023-05-10T04:03:46;13.20;99.90
14236;DHT22;7202;50.718;7.072;2023-05-10T04:06:17;13.20;99.90
14236;DHT22;7202;50.718;7.072;2023-05-10T04:08:45;13.20;99.90
14236;DHT22;7202;50.718;7.072;2023-05-10T04:11:14;13.20;99.90
14236;DHT22;7202;50.718;7.072;2023-05-10T04:13:42;13.20;99.90
14236;DHT22;7202;50.718;7.072;2023-05-10T04:16:11;13.20;99.90
14236;DHT22;7202;50.718;7.072;2023-05-10T04:18:40;13.20;99.90
14236;DHT22;7202;50.718;7.072;2023-05-10T04:21:11;13.20;99.90
14236;DHT22;7202;50.718;7.072;2023-05-10T04:23:42;13.20;99.90
14236;DHT22;7202;50.718;7.072;2023-05-10T04:26:10;13.30;99.90
14236;DHT22;7202;50.718;7.072;2023-05-10T04:28:39;13.30;99.90
14236;DHT22;7202;50.718;7.072;2023-05-10T04:31:09;13.30;99.90
14236;DHT22;7202;50.718;7.072;2023-05-10T04:33:38;13.30;99.90
14236;DHT22;7202;50.718;7.072;2023-05-10T04:36:07;13.30;99.90
14236;DHT22;7202;50.718;7.072;2023-05-10T04:38:35;13.30;99.90
14236;DHT22;7202;50.718;7.072;2023-05-10T04:41:06;13.30;99.90
14236;DHT22;7202;50.718;7.072;2023-05-10T04:43:35;13.30;99.90
14236;DHT22;7202;50.718;7.072;2023-05-10T04:46:05;13.30;99.90
14236;DHT22;7202;50.718;7.072;2023-05-10T04:48:34;13.30;99.90
14236;DHT22;7202;50.718;7.072;2023-05-10T04:51:03;13.30;99.90
14236;DHT22;7202;50.718;7.072;2023-05-10T04:53:32;13.30;99.90
14236;DHT22;7202;50.718;7.072;2023-05-10T04:56:00;13.40;99.90
14236;DHT22;7202;50.718;7.072;2023-05-10T04:58:30;13.40;99.90
14236;DHT22;7202;50.718;7.072;2023-05-10T05:01:05;13.30;99.90
14236;DHT22;7202;50.718;7.072;2023-05-10T05:03:34;13.30;99.90
14236;DHT22;7202;50.718;7.072;2023-05-10T05:06:03;13.30;99.90
14236;DHT22;7202;50.718;7.072;2023-05-10T05:08:32;13.40;99.90
14236;DHT22;7202;50.718;7.072;2023-05-10T05:11:00;13.30;99.90
14236;DHT22;7202;50.718;7.072;2023-05-10T05:13:30;13.40;99.90
14236;DHT22;7202;50.718;7.072;2023-05-10T05:16:00;13.40;99.90
14236;DHT22;7202;50.718;7.072;2023-05-10T05:18:29;13.40;99.90
14236;DHT22;7202;50.718;7.072;2023-05-10T05:20:58;13.40;99.90
14236;DHT22;7202;50.718;7.072;2023-05-10T05:23:26;13.40;99.90
14236;DHT22;7202;50.718;7.072;2023-05-10T05:25:55;13.40;99.90
14236;DHT22;7202;50.718;7.072;2023-05-10T05:28:23;13.40;99.90
14236;DHT22;7202;50.718;7.072;2023-05-10T05:30:53;13.40;99.90
14236;DHT22;7202;50.718;7.072;2023-05-10T05:33:22;13.40;99.90
14236;DHT22;7202;50.718;7.072;2023-05-10T05:35:50;13.50;99.90
14236;DHT22;7202;50.718;7.072;2023-05-10T05:38:19;13.50;99.90
14236;DHT22;7202;50.718;7.072;2023-05-10T05:40:48;13.50;99.90
14236;DHT22;7202;50.718;7.072;2023-05-10T05:43:16;13.50;99.90
14236;DHT22;7202;50.718;7.072;2023-05-10T05:45:45;13.60;99.90
14236;DHT22;7202;50.718;7.072;2023-05-10T05:48:15;13.60;99.90
14236;DHT22;7202;50.718;7.072;2023-05-10T05:50:43;13.60;99.90
14236;DHT22;7202;50.718;7.072;2023-05-10T05:53:12;13.70;99.90
14236;DHT22;7202;50.718;7.072;2023-05-10T05:55:51;13.70;99.90
14236;DHT22;7202;50.718;7.072;2023-05-10T05:58:20;13.80;99.90
14236;DHT22;7202;50.718;7.072;2023-05-10T06:00:49;13.90;99.90
14236;DHT22;7202;50.718;7.072;2023-05-10T06:03:20;13.90;99.90
14236;DHT22;7202;50.718;7.072;2023-05-10T06:05:49;13.90;99.90
14236;DHT22;7202;50.718;7.072;2023-05-10T06:08:18;14.00;99.90
14236;DHT22;7202;50.718;7.072;2023-05-10T06:10:46;13.90;99.90
14236;DHT22;7202;50.718;7.072;2023-05-10T06:13:15;14.00;99.90
14236;DHT22;7202;50.718;7.072;2023-05-10T06:15:44;14.10;99.90
14236;DHT22;7202;50.718;7.072;2023-05-10T06:18:12;14.10;99.90
14236;DHT22;7202;50.718;7.072;2023-05-10T06:20:42;14.10;99.90
14236;DHT22;7202;50.718;7.072;2023-05-10T06:23:11;14.10;99.90
14236;DHT22;7202;50.718;7.072;2023-05-10T06:25:39;14.10;99.90
14236;DHT22;7202;50.718;7.072;2023-05-10T06:28:08;14.10;99.90
14236;DHT22;7202;50.718;7.072;2023-05-10T06:30:37;14.10;99.90
14236;DHT22;7202;50.718;7.072;2023-05-10T06:33:05;14.10;99.90
14236;DHT22;7202;50.718;7.072;2023-05-10T06:35:34;14.00;99.90
14236;DHT22;7202;50.718;7.072;2023-05-10T06:38:05;14.00;99.90
14236;DHT22;7202;50.718;7.072;2023-05-10T06:40:34;14.00;99.90
14236;DHT22;7202;50.718;7.072;2023-05-10T06:43:03;14.00;99.90
14236;DHT22;7202;50.718;7.072;2023-05-10T06:45:31;13.90;99.90
14236;DHT22;7202;50.718;7.072;2023-05-10T06:48:00;13.90;99.90
14236;DHT22;7202;50.718;7.072;2023-05-10T06:50:29;13.90;99.90
14236;DHT22;7202;50.718;7.072;2023-05-10T06:52:57;13.80;99.90
14236;DHT22;7202;50.718;7.072;2023-05-10T06:55:28;13.80;99.90
14236;DHT22;7202;50.718;7.072;2023-05-10T06:57:56;13.80;99.90
14236;DHT22;7202;50.718;7.072;2023-05-10T07:00:25;13.80;99.90
14236;DHT22;7202;50.718;7.072;2023-05-10T07:02:54;13.80;99.90
14236;DHT22;7202;50.718;7.072;2023-05-10T07:05:23;13.80;99.90
14236;DHT22;7202;50.718;7.072;2023-05-10T07:07:52;13.80;99.90
14236;DHT22;7202;50.718;7.072;2023-05-10T07:10:20;13.80;99.90
14236;DHT22;7202;50.718;7.072;2023-05-10T07:12:50;13.80;99.90
14236;DHT22;7202;50.718;7.072;2023-05-10T07:15:19;13.80;99.90
14236;DHT22;7202;50.718;7.072;2023-05-10T07:17:48;13.80;99.90
14236;DHT22;7202;50.718;7.072;2023-05-10T07:20:17;13.80;99.90
14236;DHT22;7202;50.718;7.072;2023-05-10T07:22:45;13.80;99.90
14236;DHT22;7202;50.718;7.072;2023-05-10T07:25:14;13.80;99.90
14236;DHT22;7202;50.718;7.072;2023-05-10T07:27:43;13.80;99.90
14236;DHT22;7202;50.718;7.072;2023-05-10T07:30:14;13.80;99.90
14236;DHT22;7202;50.718;7.072;2023-05-10T07:32:42;13.80;99.90
14236;DHT22;7202;50.718;7.072;2023-05-10T07:35:11;13.80;99.90
14236;DHT22;7202;50.718;7.072;2023-05-10T07:37:40;13.80;99.90
14236;DHT22;7202;50.718;7.072;2023-05-10T07:40:09;13.80;99.90
14236;DHT22;7202;50.718;7.072;2023-05-10T07:42:38;13.80;99.90
14236;DHT22;7202;50.718;7.072;2023-05-10T07:45:07;13.80;99.90
14236;DHT22;7202;50.718;7.072;2023-05-10T07:47:37;13.90;99.90
14236;DHT22;7202;50.718;7.072;2023-05-10T07:50:07;13.90;99.90
14236;DHT22;7202;50.718;7.072;2023-05-10T07:52:36;13.90;99.90
14236;DHT22;7202;50.718;7.072;2023-05-10T07:55:05;13.90;99.90
14236;DHT22;7202;50.718;7.072;2023-05-10T07:57:35;13.90;99.90
14236;DHT22;7202;50.718;7.072;2023-05-10T08:00:04;13.90;99.90
14236;DHT22;7202;50.718;7.072;2023-05-10T08:02:40;13.90;99.90
14236;DHT22;7202;50.718;7.072;2023-05-10T08:05:09;13.90;99.90
14236;DHT22;7202;50.718;7.072;2023-05-10T08:07:38;13.90;99.90
14236;DHT22;7202;50.718;7.072;2023-05-10T08:10:09;13.90;99.90
14236;DHT22;7202;50.718;7.072;2023-05-10T08:12:38;14.00;99.90
14236;DHT22;7202;50.718;7.072;2023-05-10T08:15:08;14.00;99.90
14236;DHT22;7202;50.718;7.072;2023-05-10T08:17:37;14.10;99.90
14236;DHT22;7202;50.718;7.072;2023-05-10T08:20:08;14.20;99.90
14236;DHT22;7202;50.718;7.072;2023-05-10T08:22:37;14.20;99.90
14236;DHT22;7202;50.718;7.072;2023-05-10T08:25:06;14.30;99.90
14236;DHT22;7202;50.718;7.072;2023-05-10T08:27:35;14.30;99.90
14236;DHT22;7202;50.718;7.072;2023-05-10T08:30:04;14.30;99.90
14236;DHT22;7202;50.718;7.072;2023-05-10T08:32:33;14.40;99.90
14236;DHT22;7202;50.718;7.072;2023-05-10T08:35:02;14.50;99.90
14236;DHT22;7202;50.718;7.072;2023-05-10T08:37:32;14.40;99.90
14236;DHT22;7202;50.718;7.072;2023-05-10T08:40:00;14.50;99.90
14236;DHT22;7202;50.718;7.072;2023-05-10T08:42:30;14.50;99.90
14236;DHT22;7202;50.718;7.072;2023-05-10T08:44:59;14.50;99.90
14236;DHT22;7202;50.718;7.072;2023-05-10T08:47:29;14.50;99.90
14236;DHT22;7202;50.718;7.072;2023-05-10T08:49:58;14.50;99.90
14236;DHT22;7202;50.718;7.072;2023-05-10T08:52:28;14.60;99.90
14236;DHT22;7202;50.718;7.072;2023-05-10T08:54:59;14.60;99.90
14236;DHT22;7202;50.718;7.072;2023-05-10T08:57:28;14.60;99.90
14236;DHT22;7202;50.718;7.072;2023-05-10T08:59:56;14.60;99.90
14236;DHT22;7202;50.718;7.072;2023-05-10T09:02:25;14.70;99.90
14236;DHT22;7202;50.718;7.072;2023-05-10T09:04:54;14.60;99.90
14236;DHT22;7202;50.718;7.072;2023-05-10T09:07:23;14.60;99.90
14236;DHT22;7202;50.718;7.072;2023-05-10T09:09:52;14.60;99.90
14236;DHT22;7202;50.718;7.072;2023-05-10T09:12:23;14.60;99.90
14236;DHT22;7202;50.718;7.072;2023-05-10T09:14:52;14.50;99.90
14236;DHT22;7202;50.718;7.072;2023-05-10T09:17:25;14.50;99.90
14236;DHT22;7202;50.718;7.072;2023-05-10T09:19:57;14.30;99.90
14236;DHT22;7202;50.718;7.072;2023-05-10T09:22:26;14.30;99.90
14236;DHT22;7202;50.718;7.072;2023-05-10T09:25:06;14.30;99.90
14236;DHT22;7202;50.718;7.072;2023-05-10T09:27:36;14.20;99.90
14236;DHT22;7202;50.718;7.072;2023-05-10T09:30:06;14.20;99.90
14236;DHT22;7202;50.718;7.072;2023-05-10T09:32:37;14.20;99.90
14236;DHT22;7202;50.718;7.072;2023-05-10T09:35:07;14.10;99.90
14236;DHT22;7202;50.718;7.072;2023-05-10T09:37:36;14.20;99.90
14236;DHT22;7202;50.718;7.072;2023-05-10T09:40:05;14.30;99.90
14236;DHT22;7202;50.718;7.072;2023-05-10T09:42:36;14.30;99.90
14236;DHT22;7202;50.718;7.072;2023-05-10T09:45:05;14.40;99.90
14236;DHT22;7202;50.718;7.072;2023-05-10T09:47:35;14.40;99.90
14236;DHT22;7202;50.718;7.072;2023-05-10T09:50:05;14.40;99.90
14236;DHT22;7202;50.718;7.072;2023-05-10T09:52:47;14.50;99.90
14236;DHT22;7202;50.718;7.072;2023-05-10T09:55:16;14.60;99.90
14236;DHT22;7202;50.718;7.072;2023-05-10T09:57:47;14.70;99.90
14236;DHT22;7202;50.718;7.072;2023-05-10T10:00:20;14.80;99.90
14236;DHT22;7202;50.718;7.072;2023-05-10T10:02:55;14.80;99.90
14236;DHT22;7202;50.718;7.072;2023-05-10T10:05:28;14.90;99.90
14236;DHT22;7202;50.718;7.072;2023-05-10T10:07:57;15.00;99.90
14236;DHT22;7202;50.718;7.072;2023-05-10T10:10:26;15.00;99.90
14236;DHT22;7202;50.718;7.072;2023-05-10T10:12:57;15.00;99.90
14236;DHT22;7202;50.718;7.072;2023-05-10T10:15:26;15.00;99.90
14236;DHT22;7202;50.718;7.072;2023-05-10T10:17:55;15.10;99.90
14236;DHT22;7202;50.718;7.072;2023-05-10T10:20:24;15.10;99.90
14236;DHT22;7202;50.718;7.072;2023-05-10T10:22:53;15.10;99.90
14236;DHT22;7202;50.718;7.072;2023-05-10T10:25:22;15.20;99.90
14236;DHT22;7202;50.718;7.072;2023-05-10T10:28:02;15.20;99.90
14236;DHT22;7202;50.718;7.072;2023-05-10T10:30:39;15.20;99.90
14236;DHT22;7202;50.718;7.072;2023-05-10T10:33:27;15.10;99.90
14236;DHT22;7202;50.718;7.072;2023-05-10T10:36:00;15.00;99.90
14236;DHT22;7202;50.718;7.072;2023-05-10T10:38:59;15.00;99.90
14236;DHT22;7202;50.718;7.072;2023-05-10T10:41:31;15.00;99.90
14236;DHT22;7202;50.718;7.072;2023-05-10T10:44:35;15.10;99.90
14236;DHT22;7202;50.718;7.072;2023-05-10T10:47:07;15.30;99.90
14236;DHT22;7202;50.718;7.072;2023-05-10T10:49:43;15.40;99.90
14236;DHT22;7202;50.718;7.072;2023-05-10T10:52:24;15.40;99.90
14236;DHT22;7202;50.718;7.072;2023-05-10T10:55:00;15.40;99.90
14236;DHT22;7202;50.718;7.072;2023-05-10T10:57:31;15.40;99.90
14236;DHT22;7202;50.718;7.072;2023-05-10T11:00:21;15.40;99.90
14236;DHT22;7202;50.718;7.072;2023-05-10T11:02:51;15.50;99.90
14236;DHT22;7202;50.718;7.072;2023-05-10T11:05:41;15.50;99.90
14236;DHT22;7202;50.718;7.072;2023-05-10T11:08:15;15.60;99.90
14236;DHT22;7202;50.718;7.072;2023-05-10T11:11:02;15.70;99.90
14236;DHT22;7202;50.718;7.072;2023-05-10T11:13:37;15.80;99.90
14236;DHT22;7202;50.718;7.072;2023-05-10T11:16:17;15.80;99.90
14236;DHT22;7202;50.718;7.072;2023-05-10T11:18:54;15.90;99.90
14236;DHT22;7202;50.718;7.072;2023-05-10T11:21:24;16.00;99.90
14236;DHT22;7202;50.718;7.072;2023-05-10T11:23:55;16.10;99.90
14236;DHT22;7202;50.718;7.072;2023-05-10T11:26:25;16.20;99.90
14236;DHT22;7202;50.718;7.072;2023-05-10T11:28:54;16.20;99.90
14236;DHT22;7202;50.718;7.072;2023-05-10T11:31:28;16.20;99.90
14236;DHT22;7202;50.718;7.072;2023-05-10T11:33:58;16.30;99.90
14236;DHT22;7202;50.718;7.072;2023-05-10T11:36:33;16.30;99.90
14236;DHT22;7202;50.718;7.072;2023-05-10T11:39:02;16.40;99.90
14236;DHT22;7202;50.718;7.072;2023-05-10T11:41:31;16.40;99.90
14236;DHT22;7202;50.718;7.072;2023-05-10T11:44:00;16.50;99.90
14236;DHT22;7202;50.718;7.072;2023-05-10T11:46:31;16.60;99.90
14236;DHT22;7202;50.718;7.072;2023-05-10T11:49:01;16.70;99.90
14236;DHT22;7202;50.718;7.072;2023-05-10T11:51:33;16.70;99.90
14236;DHT22;7202;50.718;7.072;2023-05-10T11:54:06;16.80;99.90
14236;DHT22;7202;50.718;7.072;2023-05-10T11:56:35;16.80;99.90
14236;DHT22;7202;50.718;7.072;2023-05-10T11:59:04;16.70;99.90
14236;DHT22;7202;50.718;7.072;2023-05-10T12:01:34;16.70;99.90
14236;DHT22;7202;50.718;7.072;2023-05-10T12:04:03;16.70;99.90
14236;DHT22;7202;50.718;7.072;2023-05-10T12:06:37;16.60;99.90
14236;DHT22;7202;50.718;7.072;2023-05-10T12:09:08;16.50;99.90
14236;DHT22;7202;50.718;7.072;2023-05-10T12:11:38;16.50;99.90
14236;DHT22;7202;50.718;7.072;2023-05-10T12:14:10;16.40;99.90
14236;DHT22;7202;50.718;7.072;2023-05-10T12:16:43;16.40;99.90
14236;DHT22;7202;50.718;7.072;2023-05-10T12:19:12;16.40;99.90
14236;DHT22;7202;50.718;7.072;2023-05-10T12:21:40;16.40;99.90
14236;DHT22;7202;50.718;7.072;2023-05-10T12:24:09;16.30;99.90
14236;DHT22;7202;50.718;7.072;2023-05-10T12:26:37;16.30;99.90
14236;DHT22;7202;50.718;7.072;2023-05-10T12:29:13;16.30;99.90
14236;DHT22;7202;50.718;7.072;2023-05-10T12:31:51;16.20;99.90
14236;DHT22;7202;50.718;7.072;2023-05-10T12:34:30;16.20;99.90
14236;DHT22;7202;50.718;7.072;2023-05-10T12:36:59;16.20;99.90
14236;DHT22;7202;50.718;7.072;2023-05-10T12:39:38;16.10;99.90
14236;DHT22;7202;50.718;7.072;2023-05-10T12:42:09;16.20;99.90
14236;DHT22;7202;50.718;7.072;2023-05-10T12:44:38;16.00;99.90
14236;DHT22;7202;50.718;7.072;2023-05-10T12:47:08;16.00;99.90
14236;DHT22;7202;50.718;7.072;2023-05-10T12:49:38;15.90;99.90
14236;DHT22;7202;50.718;7.072;2023-05-10T12:52:06;15.80;99.90
14236;DHT22;7202;50.718;7.072;2023-05-10T12:54:35;15.80;99.90
14236;DHT22;7202;50.718;7.072;2023-05-10T12:57:03;15.80;99.90
14236;DHT22;7202;50.718;7.072;2023-05-10T12:59:32;15.70;99.90
14236;DHT22;7202;50.718;7.072;2023-05-10T13:02:04;15.80;99.90
14236;DHT22;7202;50.718;7.072;2023-05-10T13:04:34;15.80;99.90
14236;DHT22;7202;50.718;7.072;2023-05-10T13:07:05;15.90;99.90
14236;DHT22;7202;50.718;7.072;2023-05-10T13:09:33;15.90;99.90
14236;DHT22;7202;50.718;7.072;2023-05-10T13:12:03;16.00;99.90
14236;DHT22;7202;50.718;7.072;2023-05-10T13:14:32;16.00;99.90
14236;DHT22;7202;50.718;7.072;2023-05-10T13:17:01;16.30;99.90
14236;DHT22;7202;50.718;7.072;2023-05-10T13:19:29;16.20;99.90
14236;DHT22;7202;50.718;7.072;2023-05-10T13:21:59;16.30;99.90
14236;DHT22;7202;50.718;7.072;2023-05-10T13:24:28;16.40;99.90
14236;DHT22;7202;50.718;7.072;2023-05-10T13:26:57;16.50;99.90
14236;DHT22;7202;50.718;7.072;2023-05-10T13:29:26;16.60;99.90
14236;DHT22;7202;50.718;7.072;2023-05-10T13:31:54;16.70;99.90
14236;DHT22;7202;50.718;7.072;2023-05-10T13:34:23;16.70;99.90
14236;DHT22;7202;50.718;7.072;2023-05-10T13:36:52;16.70;99.90
14236;DHT22;7202;50.718;7.072;2023-05-10T13:39:24;16.70;99.90
14236;DHT22;7202;50.718;7.072;2023-05-10T13:41:53;16.60;99.90
14236;DHT22;7202;50.718;7.072;2023-05-10T13:44:22;16.60;99.90
14236;DHT22;7202;50.718;7.072;2023-05-10T13:46:50;16.50;99.90
14236;DHT22;7202;50.718;7.072;2023-05-10T13:49:19;16.40;99.90
14236;DHT22;7202;50.718;7.072;2023-05-10T13:51:48;16.30;99.90
14236;DHT22;7202;50.718;7.072;2023-05-10T13:54:18;16.20;99.90
14236;DHT22;7202;50.718;7.072;2023-05-10T13:56:48;16.20;99.90
14236;DHT22;7202;50.718;7.072;2023-05-10T13:59:17;16.10;99.90
14236;DHT22;7202;50.718;7.072;2023-05-10T14:01:45;16.10;99.90
14236;DHT22;7202;50.718;7.072;2023-05-10T14:04:14;16.00;99.90
14236;DHT22;7202;50.718;7.072;2023-05-10T14:06:43;15.90;99.90
14236;DHT22;7202;50.718;7.072;2023-05-10T14:09:11;15.80;99.90
14236;DHT22;7202;50.718;7.072;2023-05-10T14:11:41;15.70;99.90
14236;DHT22;7202;50.718;7.072;2023-05-10T14:14:12;15.70;99.90
14236;DHT22;7202;50.718;7.072;2023-05-10T14:16:42;15.70;99.90
14236;DHT22;7202;50.718;7.072;2023-05-10T14:19:11;15.60;99.90
14236;DHT22;7202;50.718;7.072;2023-05-10T14:21:40;15.60;99.90
14236;DHT22;7202;50.718;7.072;2023-05-10T14:24:08;15.50;99.90
14236;DHT22;7202;50.718;7.072;2023-05-10T14:26:37;15.50;99.90
14236;DHT22;7202;50.718;7.072;2023-05-10T14:29:06;15.40;99.90
14236;DHT22;7202;50.718;7.072;2023-05-10T14:31:39;15.40;99.90
14236;DHT22;7202;50.718;7.072;2023-05-10T14:34:08;15.40;99.90
14236;DHT22;7202;50.718;7.072;2023-05-10T14:36:37;15.30;99.90
14236;DHT22;7202;50.718;7.072;2023-05-10T14:39:06;15.30;99.90
14236;DHT22;7202;50.718;7.072;2023-05-10T14:41:35;15.30;99.90
14236;DHT22;7202;50.718;7.072;2023-05-10T14:44:04;15.20;99.90
14236;DHT22;7202;50.718;7.072;2023-05-10T14:46:33;15.20;99.90
14236;DHT22;7202;50.718;7.072;2023-05-10T14:49:03;15.30;99.90
14236;DHT22;7202;50.718;7.072;2023-05-10T14:51:31;15.40;99.90
14236;DHT22;7202;50.718;7.072;2023-05-10T14:54:00;15.40;99.90
14236;DHT22;7202;50.718;7.072;2023-05-10T14:56:29;15.50;99.90
14236;DHT22;7202;50.718;7.072;2023-05-10T14:58:58;15.50;99.90
14236;DHT22;7202;50.718;7.072;2023-05-10T15:01:28;15.60;99.90
14236;DHT22;7202;50.718;7.072;2023-05-10T15:03:57;15.60;99.90
14236;DHT22;7202;50.718;7.072;2023-05-10T15:06:31;15.60;99.90
14236;DHT22;7202;50.718;7.072;2023-05-10T15:09:01;15.60;99.90
14236;DHT22;7202;50.718;7.072;2023-05-10T15:11:30;15.50;99.90
14236;DHT22;7202;50.718;7.072;2023-05-10T15:13:59;15.50;99.90
14236;DHT22;7202;50.718;7.072;2023-05-10T15:16:29;15.50;99.90
14236;DHT22;7202;50.718;7.072;2023-05-10T15:19:01;15.50;99.90
14236;DHT22;7202;50.718;7.072;2023-05-10T15:21:31;15.50;99.90
14236;DHT22;7202;50.718;7.072;2023-05-10T15:24:06;15.50;99.90
14236;DHT22;7202;50.718;7.072;2023-05-10T15:26:34;15.40;99.90
14236;DHT22;7202;50.718;7.072;2023-05-10T15:29:03;15.40;99.90
14236;DHT22;7202;50.718;7.072;2023-05-10T15:31:32;15.40;99.90
14236;DHT22;7202;50.718;7.072;2023-05-10T15:34:02;15.40;99.90
14236;DHT22;7202;50.718;7.072;2023-05-10T15:36:32;15.40;99.90
14236;DHT22;7202;50.718;7.072;2023-05-10T15:39:01;15.30;99.90
14236;DHT22;7202;50.718;7.072;2023-05-10T15:41:30;15.20;99.90
14236;DHT22;7202;50.718;7.072;2023-05-10T15:43:58;15.20;99.90
14236;DHT22;7202;50.718;7.072;2023-05-10T15:46:28;15.20;99.90
14236;DHT22;7202;50.718;7.072;2023-05-10T15:48:57;15.20;99.90
14236;DHT22;7202;50.718;7.072;2023-05-10T15:51:26;15.10;99.90
14236;DHT22;7202;50.718;7.072;2023-05-10T15:53:56;15.10;99.90
14236;DHT22;7202;50.718;7.072;2023-05-10T15:56:34;15.10;99.90
14236;DHT22;7202;50.718;7.072;2023-05-10T15:59:02;15.10;99.90
14236;DHT22;7202;50.718;7.072;2023-05-10T16:01:32;15.20;99.90
14236;DHT22;7202;50.718;7.072;2023-05-10T16:04:01;15.20;99.90
14236;DHT22;7202;50.718;7.072;2023-05-10T16:06:29;15.20;99.90